sensor_id;sensor_type;location;lat;lon;timestamp;P1;P2;P0
72918;PMS7003;68407;55.694;26.994;2023-06-04T00:01:52;1.6;1.3;1.2
72918;PMS7003;68407;55.694;26.994;2023-06-04T00:06:56;1.8;1.2;1
72918;PMS7003;68407;55.694;26.994;2023-06-04T00:12:26;1.9;1.3;1.1
72918;PMS7003;68407;55.694;26.994;2023-06-04T00:17:26;1.2;1.1;0.8
72918;PMS7003;68407;55.694;26.994;2023-06-04T00:21:42;1.6;1;0.8
72918;PMS7003;68407;55.694;26.994;2023-06-04T00:27:26;1.1;0.7;0.6
72918;PMS7003;68407;55.694;26.994;2023-06-04T00:32:10;1.4;0.9;0.7
72918;PMS7003;68407;55.694;26.994;2023-06-04T00:37:12;1.4;0.8;0.6
72918;PMS7003;68407;55.694;26.994;2023-06-04T00:42:12;1.1;0.7;0.4
72918;PMS7003;68407;55.694;26.994;2023-06-04T00:47:26;0.9;0.6;0.4
72918;PMS7003;68407;55.694;26.994;2023-06-04T00:51:44;0.9;0.4;0.4
72918;PMS7003;68407;55.694;26.994;2023-06-04T00:57:26;1.4;0.9;0.6
72918;PMS7003;68407;55.694;26.994;2023-06-04T01:01:43;1.6;0.7;0.6
72918;PMS7003;68407;55.694;26.994;2023-06-04T01:07:10;0.9;0.4;0.2
72918;PMS7003;68407;55.694;26.994;2023-06-04T01:12:08;1.3;0.6;0.4
72918;PMS7003;68407;55.694;26.994;2023-06-04T01:17:26;0.7;0.4;0.3
72918;PMS7003;68407;55.694;26.994;2023-06-04T01:21:42;0.6;0.3;0.2
72918;PMS7003;68407;55.694;26.994;2023-06-04T01:27:22;0.9;0.3;0.2
72918;PMS7003;68407;55.694;26.994;2023-06-04T01:31:54;0.6;0.4;0.3
72918;PMS7003;68407;55.694;26.994;2023-06-04T01:37:26;1.5;0.6;0.4
72918;PMS7003;68407;55.694;26.994;2023-06-04T01:41:42;0.9;0.5;0.3
72918;PMS7003;68407;55.694;26.994;2023-06-04T01:47:26;0.8;0.4;0.3
72918;PMS7003;68407;55.694;26.994;2023-06-04T01:52:12;0.7;0.5;0.4
72918;PMS7003;68407;55.694;26.994;2023-06-04T01:57:28;1.3;0.6;0.5
72918;PMS7003;68407;55.694;26.994;2023-06-04T02:01:42;0.6;0.4;0.2
72918;PMS7003;68407;55.694;26.994;2023-06-04T02:07:28;0.5;0.3;0.2
72918;PMS7003;68407;55.694;26.994;2023-06-04T02:12:12;0.9;0.5;0.3
72918;PMS7003;68407;55.694;26.994;2023-06-04T02:17:28;0.9;0.5;0.3
72918;PMS7003;68407;55.694;26.994;2023-06-04T02:21:46;1.2;0.5;0.3
72918;PMS7003;68407;55.694;26.994;2023-06-04T02:27:28;0.9;0.5;0.4
72918;PMS7003;68407;55.694;26.994;2023-06-04T02:32:12;0.7;0.3;0.3
72918;PMS7003;68407;55.694;26.994;2023-06-04T02:37:28;0.5;0.3;0.1
72918;PMS7003;68407;55.694;26.994;2023-06-04T02:41:46;1.1;0.6;0.5
72918;PMS7003;68407;55.694;26.994;2023-06-04T02:47:28;0.6;0.4;0.3
72918;PMS7003;68407;55.694;26.994;2023-06-04T02:51:48;0.7;0.5;0.4
72918;PMS7003;68407;55.694;26.994;2023-06-04T02:57:28;0.7;0.4;0.2
72918;PMS7003;68407;55.694;26.994;2023-06-04T03:01:54;0.8;0.3;0.3
72918;PMS7003;68407;55.694;26.994;2023-06-04T03:07:28;0.8;0.6;0.4
72918;PMS7003;68407;55.694;26.994;2023-06-04T03:12:10;0.9;0.3;0.2
72918;PMS7003;68407;55.694;26.994;2023-06-04T03:17:28;0.8;0.5;0.4
72918;PMS7003;68407;55.694;26.994;2023-06-04T03:21:42;1;0.4;0.2
72918;PMS7003;68407;55.694;26.994;2023-06-04T03:27:28;0.6;0.3;0.2
72918;PMS7003;68407;55.694;26.994;2023-06-04T03:32:10;0.7;0.2;0.2
72918;PMS7003;68407;55.694;26.994;2023-06-04T03:37:28;0.6;0.5;0.3
72918;PMS7003;68407;55.694;26.994;2023-06-04T03:41:54;1.4;0.3;0.2
72918;PMS7003;68407;55.694;26.994;2023-06-04T03:47:28;0.7;0.5;0.3
72918;PMS7003;68407;55.694;26.994;2023-06-04T03:52:12;0.4;0.3;0.2
72918;PMS7003;68407;55.694;26.994;2023-06-04T03:57:28;0.6;0.2;0.2
72918;PMS7003;68407;55.694;26.994;2023-06-04T04:01:58;0.8;0.3;0.2
72918;PMS7003;68407;55.694;26.994;2023-06-04T04:07:28;0.8;0.5;0.3
72918;PMS7003;68407;55.694;26.994;2023-06-04T04:12:12;0.6;0.4;0.3
72918;PMS7003;68407;55.694;26.994;2023-06-04T04:17:28;1;0.2;0.2
72918;PMS7003;68407;55.694;26.994;2023-06-04T04:21:42;0.9;0.5;0.3
72918;PMS7003;68407;55.694;26.994;2023-06-04T04:27:26;0.8;0.5;0.4
72918;PMS7003;68407;55.694;26.994;2023-06-04T04:31:44;0.7;0.3;0.3
72918;PMS7003;68407;55.694;26.994;2023-06-04T04:37:28;0.8;0.3;0.1
72918;PMS7003;68407;55.694;26.994;2023-06-04T04:42:12;0.4;0.3;0.1
72918;PMS7003;68407;55.694;26.994;2023-06-04T04:47:28;1;0.4;0.2
72918;PMS7003;68407;55.694;26.994;2023-06-04T04:52:28;0.5;0.3;0.1
72918;PMS7003;68407;55.694;26.994;2023-06-04T04:57:28;0.8;0.4;0.3
72918;PMS7003;68407;55.694;26.994;2023-06-04T05:01:54;0.3;0.3;0.3
72918;PMS7003;68407;55.694;26.994;2023-06-04T05:07:28;0.5;0.1;0.1
72918;PMS7003;68407;55.694;26.994;2023-06-04T05:12:00;0.3;0.2;0.1
72918;PMS7003;68407;55.694;26.994;2023-06-04T05:17:28;0.2;0.2;0.1
72918;PMS7003;68407;55.694;26.994;2023-06-04T05:21:54;0.6;0.2;0.1
72918;PMS7003;68407;55.694;26.994;2023-06-04T05:27:26;0.5;0.2;0.2
72918;PMS7003;68407;55.694;26.994;2023-06-04T05:32:10;0.3;0.1;0.1
72918;PMS7003;68407;55.694;26.994;2023-06-04T05:37:28;0;0;0
72918;PMS7003;68407;55.694;26.994;2023-06-04T05:41:48;0.3;0;0
72918;PMS7003;68407;55.694;26.994;2023-06-04T05:47:28;0.3;0;0
72918;PMS7003;68407;55.694;26.994;2023-06-04T05:52:12;0.4;0;0
72918;PMS7003;68407;55.694;26.994;2023-06-04T05:57:28;0;0;0
72918;PMS7003;68407;55.694;26.994;2023-06-04T06:01:54;0.4;0;0
72918;PMS7003;68407;55.694;26.994;2023-06-04T06:07:28;0.3;0;0
72918;PMS7003;68407;55.694;26.994;2023-06-04T06:12:10;0.1;0.1;0.1
72918;PMS7003;68407;55.694;26.994;2023-06-04T06:17:28;0.1;0;0
72918;PMS7003;68407;55.694;26.994;2023-06-04T06:21:42;0.3;0;0
72918;PMS7003;68407;55.694;26.994;2023-06-04T06:27:28;0.1;0;0
72918;PMS7003;68407;55.694;26.994;2023-06-04T06:32:10;0.5;0.1;0
72918;PMS7003;68407;55.694;26.994;2023-06-04T06:37:28;0.2;0.1;0
72918;PMS7003;68407;55.694;26.994;2023-06-04T06:41:54;0.1;0;0
72918;PMS7003;68407;55.694;26.994;2023-06-04T06:47:26;0;0;0
72918;PMS7003;68407;55.694;26.994;2023-06-04T06:52:12;0;0;0
72918;PMS7003;68407;55.694;26.994;2023-06-04T06:57:28;0;0;0
72918;PMS7003;68407;55.694;26.994;2023-06-04T07:02:06;0.2;0;0
72918;PMS7003;68407;55.694;26.994;2023-06-04T07:07:28;0.1;0;0
72918;PMS7003;68407;55.694;26.994;2023-06-04T07:12:08;0.2;0;0
72918;PMS7003;68407;55.694;26.994;2023-06-04T07:17:28;0.4;0;0
72918;PMS7003;68407;55.694;26.994;2023-06-04T07:21:42;0.3;0;0
72918;PMS7003;68407;55.694;26.994;2023-06-04T07:27:26;0.3;0;0
72918;PMS7003;68407;55.694;26.994;2023-06-04T07:32:10;0.1;0;0
72918;PMS7003;68407;55.694;26.994;2023-06-04T07:37:28;0.2;0.1;0
72918;PMS7003;68407;55.694;26.994;2023-06-04T07:41:48;0.2;0;0
72918;PMS7003;68407;55.694;26.994;2023-06-04T07:47:28;0.1;0;0
72918;PMS7003;68407;55.694;26.994;2023-06-04T07:52:28;0.5;0;0
72918;PMS7003;68407;55.694;26.994;2023-06-04T07:57:28;0;0;0
72918;PMS7003;68407;55.694;26.994;2023-06-04T08:01:54;0.2;0;0
72918;PMS7003;68407;55.694;26.994;2023-06-04T08:07:28;0.8;0;0
72918;PMS7003;68407;55.694;26.994;2023-06-04T08:12:10;0.1;0;0
72918;PMS7003;68407;55.694;26.994;2023-06-04T08:17:26;0.1;0;0
72918;PMS7003;68407;55.694;26.994;2023-06-04T08:21:52;0.2;0.1;0.1
72918;PMS7003;68407;55.694;26.994;2023-06-04T08:27:28;0.1;0.1;0.1
72918;PMS7003;68407;55.694;26.994;2023-06-04T08:32:10;0.1;0;0
72918;PMS7003;68407;55.694;26.994;2023-06-04T08:37:28;0.2;0;0
72918;PMS7003;68407;55.694;26.994;2023-06-04T08:41:54;0.8;0;0
72918;PMS7003;68407;55.694;26.994;2023-06-04T08:47:26;0.2;0;0
72918;PMS7003;68407;55.694;26.994;2023-06-04T08:51:56;0.6;0.1;0.1
72918;PMS7003;68407;55.694;26.994;2023-06-04T08:57:30;0.7;0.2;0.2
72918;PMS7003;68407;55.694;26.994;2023-06-04T09:01:43;0.3;0.2;0.2
72918;PMS7003;68407;55.694;26.994;2023-06-04T09:07:12;0.3;0;0
72918;PMS7003;68407;55.694;26.994;2023-06-04T09:12:10;0;0;0
72918;PMS7003;68407;55.694;26.994;2023-06-04T09:17:28;0.1;0;0
72918;PMS7003;68407;55.694;26.994;2023-06-04T09:21:53;0.6;0;0
72918;PMS7003;68407;55.694;26.994;2023-06-04T09:27:26;0.1;0;0
72918;PMS7003;68407;55.694;26.994;2023-06-04T09:32:12;0.5;0;0
72918;PMS7003;68407;55.694;26.994;2023-06-04T09:37:22;0.1;0;0
72918;PMS7003;68407;55.694;26.994;2023-06-04T09:41:42;0.1;0;0
72918;PMS7003;68407;55.694;26.994;2023-06-04T09:47:37;0.4;0;0
72918;PMS7003;68407;55.694;26.994;2023-06-04T09:52:10;0;0;0
72918;PMS7003;68407;55.694;26.994;2023-06-04T09:56:56;0.3;0;0
72918;PMS7003;68407;55.694;26.994;2023-06-04T10:01:42;0.2;0;0
72918;PMS7003;68407;55.694;26.994;2023-06-04T10:07:29;0.1;0;0
72918;PMS7003;68407;55.694;26.994;2023-06-04T10:12:00;0;0;0
72918;PMS7003;68407;55.694;26.994;2023-06-04T10:17:22;0;0;0
72918;PMS7003;68407;55.694;26.994;2023-06-04T10:21:52;0;0;0
72918;PMS7003;68407;55.694;26.994;2023-06-04T10:27:28;0.1;0;0
72918;PMS7003;68407;55.694;26.994;2023-06-04T10:32:12;0.2;0;0
72918;PMS7003;68407;55.694;26.994;2023-06-04T10:37:20;0.1;0;0
72918;PMS7003;68407;55.694;26.994;2023-06-04T10:41:42;0.7;0.1;0
72918;PMS7003;68407;55.694;26.994;2023-06-04T10:47:27;0.4;0;0
72918;PMS7003;68407;55.694;26.994;2023-06-04T10:52:10;0.2;0;0
